Time;durP1;ratioP1;P1;durP2;ratioP2;P2;SDS_P1;SDS_P2;PMS_P1;PMS_P2;Temp;Humidity;BMP_temperature;BMP_pressure;BME280_temperature;BME280_humidity;BME280_pressure;Samples;Min_cycle;Max_cycle;Signal;HPM_P1;HPM_P2
2024/01/14 00:00:03;;;;;;;38.67;20.98;;;4.70;93.80;;;;;;5051657;28;20060;-30
2024/01/14 00:02:28;;;;;;;43.28;22.17;;;4.70;93.80;;;;;;5051355;28;20462;-31
2024/01/14 00:04:54;;;;;;;38.85;19.20;;;4.70;93.80;;;;;;5051562;28;20108;-32
2024/01/14 00:07:20;;;;;;;39.20;20.73;;;4.70;93.80;;;;;;5051607;28;20029;-30
2024/01/14 00:09:46;;;;;;;39.92;19.73;;;4.70;93.80;;;;;;5051609;28;20071;-36
2024/01/14 00:12:12;;;;;;;39.22;19.05;;;4.70;93.80;;;;;;5051270;28;20045;-30
2024/01/14 00:14:37;;;;;;;36.53;19.58;;;4.70;93.80;;;;;;5051386;28;20504;-31
2024/01/14 00:17:03;;;;;;;36.67;18.52;;;4.70;93.80;;;;;;5054160;28;20056;-30
2024/01/14 00:19:28;;;;;;;38.03;19.42;;;4.70;93.80;;;;;;5055222;28;20021;-33
2024/01/14 00:21:54;;;;;;;39.17;19.65;;;4.80;93.80;;;;;;5055008;28;20477;-33
2024/01/14 00:24:19;;;;;;;35.30;18.80;;;4.80;93.80;;;;;;5054991;28;20021;-32
2024/01/14 00:26:45;;;;;;;41.20;20.20;;;4.80;93.80;;;;;;5055215;28;20031;-31
2024/01/14 00:29:10;;;;;;;39.13;19.75;;;4.80;93.80;;;;;;5054882;28;20488;-31
2024/01/14 00:31:37;;;;;;;37.40;19.70;;;4.80;93.80;;;;;;5054742;28;20017;-33
2024/01/14 00:34:02;;;;;;;34.42;17.95;;;4.80;93.80;;;;;;5055003;28;20037;-31
2024/01/14 00:36:28;;;;;;;36.15;18.35;;;4.80;93.80;;;;;;5055096;28;20024;-33
2024/01/14 00:38:53;;;;;;;35.80;19.02;;;4.80;93.80;;;;;;5053779;28;20112;-31
2024/01/14 00:41:20;;;;;;;34.20;16.83;;;4.80;93.70;;;;;;5054524;28;20057;-30
2024/01/14 00:43:45;;;;;;;35.40;18.40;;;4.80;93.70;;;;;;5053398;28;20036;-34
2024/01/14 00:46:12;;;;;;;35.33;17.52;;;4.80;93.80;;;;;;5054935;28;20021;-30
2024/01/14 00:48:37;;;;;;;31.70;16.70;;;4.80;94.00;;;;;;5054822;28;20036;-35
2024/01/14 00:51:04;;;;;;;29.55;15.43;;;4.80;93.80;;;;;;5054472;28;20456;-32
2024/01/14 00:53:30;;;;;;;32.03;16.65;;;4.80;93.80;;;;;;5054461;28;20100;-32
2024/01/14 00:55:55;;;;;;;33.15;16.55;;;4.80;93.80;;;;;;5054463;28;20060;-31
2024/01/14 00:58:21;;;;;;;29.83;15.50;;;4.90;93.80;;;;;;5054271;28;20032;-32
2024/01/14 01:00:47;;;;;;;31.30;16.02;;;4.80;93.70;;;;;;5054375;28;20029;-30
2024/01/14 01:03:13;;;;;;;33.03;16.58;;;4.80;93.70;;;;;;5054466;28;20155;-32
2024/01/14 01:05:38;;;;;;;34.97;17.45;;;4.80;93.80;;;;;;5054139;28;20519;-34
2024/01/14 01:08:04;;;;;;;35.05;17.52;;;4.80;93.80;;;;;;5054631;28;20021;-33
2024/01/14 01:10:29;;;;;;;33.88;17.10;;;4.80;93.80;;;;;;5054428;28;20029;-30
2024/01/14 01:12:55;;;;;;;32.90;16.73;;;4.80;93.80;;;;;;5054106;28;20033;-31
2024/01/14 01:15:21;;;;;;;35.35;17.33;;;4.80;93.80;;;;;;5054117;28;20029;-31
2024/01/14 01:17:46;;;;;;;35.22;17.52;;;4.80;93.80;;;;;;5054388;28;20037;-33
2024/01/14 01:20:12;;;;;;;34.70;18.00;;;4.80;93.80;;;;;;5054018;28;20393;-32
2024/01/14 01:22:37;;;;;;;35.67;18.20;;;4.80;93.80;;;;;;5053906;28;20067;-31
2024/01/14 01:25:03;;;;;;;33.92;17.83;;;4.80;93.90;;;;;;5053674;28;20387;-36
2024/01/14 01:27:29;;;;;;;39.33;19.63;;;4.80;93.90;;;;;;5053172;28;20032;-33
2024/01/14 01:29:56;;;;;;;36.88;18.88;;;4.80;93.80;;;;;;5053966;28;20047;-32
2024/01/14 01:32:22;;;;;;;46.17;21.25;;;4.80;93.90;;;;;;5053558;28;20385;-30
2024/01/14 01:34:47;;;;;;;43.72;21.13;;;4.80;93.90;;;;;;5054119;28;20075;-31
2024/01/14 01:37:14;;;;;;;39.03;18.95;;;4.80;93.90;;;;;;5054029;28;20086;-30
2024/01/14 01:39:39;;;;;;;37.67;18.25;;;4.70;93.90;;;;;;5054160;28;20051;-30
2024/01/14 01:42:05;;;;;;;43.22;20.45;;;4.80;93.90;;;;;;5053435;28;20025;-33
2024/01/14 01:44:31;;;;;;;40.60;19.90;;;4.80;93.90;;;;;;5053785;28;20068;-33
2024/01/14 01:46:57;;;;;;;36.85;18.20;;;4.80;93.90;;;;;;5053816;28;20066;-34
2024/01/14 01:49:23;;;;;;;39.20;18.80;;;4.80;93.90;;;;;;5054097;28;20178;-29
2024/01/14 01:51:50;;;;;;;35.35;18.10;;;4.80;93.90;;;;;;5053419;28;20375;-31
2024/01/14 01:54:22;;;;;;;38.80;19.85;;;4.70;93.90;;;;;;5052048;28;20174;-42
2024/01/14 01:56:50;;;;;;;39.60;18.65;;;4.80;94.00;;;;;;5053377;28;20033;-30
2024/01/14 01:59:16;;;;;;;41.75;21.02;;;4.80;94.00;;;;;;5053373;28;20029;-30
2024/01/14 02:01:44;;;;;;;35.92;19.00;;;4.70;93.90;;;;;;5052774;28;20036;-30
2024/01/14 02:04:11;;;;;;;39.60;19.15;;;4.70;94.00;;;;;;5053464;28;20036;-33
2024/01/14 02:06:38;;;;;;;35.42;18.73;;;4.70;94.10;;;;;;5053090;28;20021;-29
2024/01/14 02:09:07;;;;;;;35.40;17.55;;;4.70;94.10;;;;;;5053242;28;20029;-30
2024/01/14 02:11:33;;;;;;;35.42;17.08;;;4.80;94.10;;;;;;5051871;28;20033;-29
2024/01/14 02:13:59;;;;;;;35.58;18.58;;;4.80;94.40;;;;;;5053405;28;20025;-30
2024/01/14 02:16:24;;;;;;;39.55;19.35;;;4.80;94.10;;;;;;5052981;28;20158;-31
2024/01/14 02:18:50;;;;;;;44.00;20.88;;;4.80;94.30;;;;;;5053219;28;20032;-32
2024/01/14 02:21:19;;;;;;;40.05;20.77;;;4.80;94.10;;;;;;5053116;28;20060;-29
2024/01/14 02:23:51;;;;;;;40.78;20.23;;;4.80;94.10;;;;;;5052834;28;20116;-31
2024/01/14 02:26:17;;;;;;;42.22;20.83;;;4.80;94.10;;;;;;5052838;28;20021;-30
2024/01/14 02:28:43;;;;;;;44.03;22.33;;;4.80;94.10;;;;;;5052693;28;20343;-36
2024/01/14 02:31:09;;;;;;;46.50;22.42;;;4.80;94.10;;;;;;5052476;28;20057;-31
2024/01/14 02:33:35;;;;;;;44.65;23.52;;;4.80;94.10;;;;;;5052805;28;20437;-31
2024/01/14 02:36:00;;;;;;;49.63;22.83;;;4.80;94.10;;;;;;5052909;28;20017;-33
2024/01/14 02:38:26;;;;;;;51.97;24.42;;;4.80;94.10;;;;;;5052382;28;20026;-31
2024/01/14 02:40:51;;;;;;;44.05;22.45;;;4.80;94.10;;;;;;5051557;28;20132;-31
2024/01/14 02:43:17;;;;;;;46.05;21.75;;;4.80;94.10;;;;;;5052642;28;20032;-30
2024/01/14 02:45:42;;;;;;;50.20;23.45;;;4.80;94.10;;;;;;5052395;28;20466;-30
2024/01/14 02:48:08;;;;;;;51.15;25.17;;;4.80;94.10;;;;;;5052378;28;20466;-31
2024/01/14 02:50:34;;;;;;;46.72;22.15;;;4.70;94.10;;;;;;5052291;28;20060;-29
2024/01/14 02:52:59;;;;;;;50.78;23.45;;;4.70;94.10;;;;;;5052081;28;20029;-31
2024/01/14 02:55:25;;;;;;;50.67;23.73;;;4.70;94.20;;;;;;5052607;28;20034;-29
2024/01/14 02:57:51;;;;;;;49.63;23.02;;;4.80;94.20;;;;;;5052461;28;20028;-31
2024/01/14 03:00:16;;;;;;;51.88;24.88;;;4.80;94.10;;;;;;5052146;28;20036;-33
2024/01/14 03:02:42;;;;;;;48.28;22.42;;;4.80;94.10;;;;;;5051953;28;20025;-32
2024/01/14 03:05:07;;;;;;;50.50;24.50;;;4.70;94.10;;;;;;5052300;28;20057;-31
2024/01/14 03:07:33;;;;;;;49.67;24.65;;;4.70;94.10;;;;;;5052085;28;20411;-28
2024/01/14 03:09:59;;;;;;;52.85;24.92;;;4.70;94.10;;;;;;5052261;28;20508;-37
2024/01/14 03:12:24;;;;;;;53.03;25.98;;;4.70;94.10;;;;;;5051792;28;20056;-36
2024/01/14 03:14:50;;;;;;;48.55;24.67;;;4.70;94.10;;;;;;5052141;28;20108;-31
2024/01/14 03:17:15;;;;;;;46.10;22.73;;;4.60;94.10;;;;;;5051961;28;20091;-34
2024/01/14 03:19:41;;;;;;;49.15;24.33;;;4.60;94.10;;;;;;5052048;28;20086;-29
2024/01/14 03:22:07;;;;;;;49.58;26.55;;;4.60;94.10;;;;;;5052012;28;20025;-30
2024/01/14 03:24:33;;;;;;;47.38;24.15;;;4.60;94.10;;;;;;5050239;28;20051;-29
2024/01/14 03:26:58;;;;;;;47.60;24.38;;;4.60;94.10;;;;;;5051959;28;20049;-30
2024/01/14 03:29:24;;;;;;;53.92;26.63;;;4.60;94.10;;;;;;5051946;28;20049;-29
2024/01/14 03:31:49;;;;;;;51.53;25.30;;;4.60;94.10;;;;;;5051506;28;20025;-30
2024/01/14 03:34:15;;;;;;;54.80;27.00;;;4.60;94.10;;;;;;5051551;28;20061;-30
2024/01/14 03:36:40;;;;;;;56.90;26.38;;;4.60;94.10;;;;;;5051836;28;20097;-29
2024/01/14 03:39:06;;;;;;;59.80;29.08;;;4.50;94.00;;;;;;5051972;28;20536;-30
2024/01/14 03:41:32;;;;;;;61.55;29.42;;;4.50;94.00;;;;;;5051552;28;20032;-34
2024/01/14 03:43:58;;;;;;;55.83;28.00;;;4.50;94.10;;;;;;5051508;28;20029;-30
2024/01/14 03:46:24;;;;;;;58.65;29.30;;;4.50;94.10;;;;;;5051550;28;20554;-30
2024/01/14 03:48:49;;;;;;;53.72;26.90;;;4.50;94.10;;;;;;5051881;28;20378;-31
2024/01/14 03:51:15;;;;;;;66.18;31.98;;;4.50;94.10;;;;;;5053249;28;20021;-30
2024/01/14 03:53:40;;;;;;;63.25;30.40;;;4.40;94.10;;;;;;5055679;28;20029;-30
2024/01/14 03:56:06;;;;;;;66.45;30.58;;;4.40;94.00;;;;;;5055968;28;20021;-37
2024/01/14 03:58:32;;;;;;;61.20;29.00;;;4.40;94.10;;;;;;5055530;28;20057;-30
2024/01/14 04:00:57;;;;;;;67.20;30.17;;;4.40;94.10;;;;;;5055454;28;20021;-30
2024/01/14 04:03:23;;;;;;;65.32;30.60;;;4.30;94.10;;;;;;5055683;28;20025;-28
2024/01/14 04:05:48;;;;;;;60.40;28.55;;;4.30;94.10;;;;;;5055558;28;20096;-29
2024/01/14 04:08:14;;;;;;;70.07;29.10;;;4.30;94.10;;;;;;5053973;28;20033;-29
2024/01/14 04:10:39;;;;;;;60.25;29.02;;;4.30;94.10;;;;;;5055390;28;20017;-29
2024/01/14 04:13:05;;;;;;;61.58;29.52;;;4.20;94.10;;;;;;5055251;28;20017;-33
2024/01/14 04:15:31;;;;;;;62.40;29.00;;;4.20;94.10;;;;;;5055439;28;20100;-29
2024/01/14 04:17:56;;;;;;;57.05;28.63;;;4.20;94.10;;;;;;5055219;28;20032;-29
2024/01/14 04:20:23;;;;;;;55.83;26.75;;;4.20;94.10;;;;;;5055413;28;20021;-28
2024/01/14 04:22:48;;;;;;;55.78;27.73;;;4.20;94.20;;;;;;5055275;28;20029;-29
2024/01/14 04:25:14;;;;;;;61.95;30.45;;;4.20;94.20;;;;;;5054834;28;20492;-32
2024/01/14 04:27:39;;;;;;;60.22;28.83;;;4.20;94.10;;;;;;5055257;28;20028;-30
2024/01/14 04:30:06;;;;;;;58.60;27.67;;;4.20;94.20;;;;;;5055073;28;20017;-30
2024/01/14 04:32:32;;;;;;;64.82;28.33;;;4.20;94.20;;;;;;5054808;28;20029;-31
2024/01/14 04:34:57;;;;;;;57.30;29.20;;;4.20;94.20;;;;;;5054697;28;20053;-29
2024/01/14 04:37:23;;;;;;;59.17;27.67;;;4.20;94.20;;;;;;5055219;28;20049;-32
2024/01/14 04:39:48;;;;;;;64.20;31.20;;;4.20;94.20;;;;;;5054773;28;20033;-30
2024/01/14 04:42:14;;;;;;;63.35;30.13;;;4.20;94.10;;;;;;5054957;28;20033;-29
2024/01/14 04:44:39;;;;;;;69.00;30.65;;;4.20;94.20;;;;;;5054759;28;20128;-31
2024/01/14 04:47:05;;;;;;;68.32;31.15;;;4.20;94.20;;;;;;5054779;28;20512;-31
2024/01/14 04:49:30;;;;;;;64.57;30.67;;;4.10;94.10;;;;;;5054509;28;20564;-29
2024/01/14 04:51:56;;;;;;;62.67;28.83;;;4.10;94.10;;;;;;5054429;28;20060;-31
2024/01/14 04:54:21;;;;;;;57.97;28.00;;;4.10;94.20;;;;;;5054779;28;20025;-28
2024/01/14 04:56:47;;;;;;;61.08;28.60;;;4.20;94.20;;;;;;5054611;28;20036;-31
2024/01/14 04:59:13;;;;;;;65.60;31.40;;;4.20;94.20;;;;;;5054582;28;20067;-36
2024/01/14 05:01:39;;;;;;;64.45;29.35;;;4.20;94.10;;;;;;5054293;28;20036;-32
2024/01/14 05:04:04;;;;;;;66.00;31.00;;;4.10;94.10;;;;;;5053433;28;20032;-33
2024/01/14 05:06:32;;;;;;;62.75;29.90;;;4.10;94.10;;;;;;5054212;28;20028;-33
2024/01/14 05:08:58;;;;;;;62.60;29.90;;;4.10;94.10;;;;;;5054545;28;20045;-37
2024/01/14 05:11:24;;;;;;;62.13;29.15;;;4.10;94.10;;;;;;5054347;28;20106;-35
2024/01/14 05:13:49;;;;;;;67.13;31.08;;;4.10;94.10;;;;;;5054537;28;20029;-36
2024/01/14 05:16:15;;;;;;;64.38;29.70;;;4.10;94.10;;;;;;5054198;28;20017;-32
2024/01/14 05:18:41;;;;;;;64.68;29.65;;;4.10;94.10;;;;;;5054109;28;20025;-34
2024/01/14 05:21:06;;;;;;;67.25;31.08;;;4.10;94.10;;;;;;5052646;28;20485;-37
2024/01/14 05:23:32;;;;;;;58.65;28.60;;;4.00;94.00;;;;;;5053849;28;20032;-35
2024/01/14 05:25:58;;;;;;;62.33;28.40;;;4.00;94.10;;;;;;5053520;28;20537;-35
2024/01/14 05:28:23;;;;;;;50.95;25.23;;;4.00;94.10;;;;;;5053590;28;20432;-38
2024/01/14 05:30:49;;;;;;;62.53;29.20;;;4.00;94.20;;;;;;5053751;28;20473;-37
2024/01/14 05:33:14;;;;;;;56.67;27.85;;;4.10;94.20;;;;;;5053637;28;20025;-36
2024/01/14 05:35:40;;;;;;;58.58;27.35;;;4.10;94.10;;;;;;5054018;28;20029;-33
2024/01/14 05:38:05;;;;;;;54.80;26.67;;;4.10;94.10;;;;;;5054081;28;20021;-35
2024/01/14 05:40:32;;;;;;;67.35;30.88;;;4.10;94.10;;;;;;5053643;28;20025;-35
2024/01/14 05:42:57;;;;;;;57.50;26.92;;;4.10;94.00;;;;;;5053744;28;20025;-35
2024/01/14 05:45:23;;;;;;;62.90;30.52;;;4.00;93.90;;;;;;5053710;28;20032;-36
2024/01/14 05:47:49;;;;;;;61.40;29.35;;;4.00;93.90;;;;;;5053828;28;20408;-36
2024/01/14 05:50:14;;;;;;;62.40;28.95;;;4.00;94.00;;;;;;5053496;28;20031;-36
2024/01/14 05:52:40;;;;;;;52.95;26.55;;;4.00;94.00;;;;;;5053368;28;20245;-37
2024/01/14 05:55:06;;;;;;;56.50;27.85;;;4.00;94.00;;;;;;5053763;28;20028;-33
2024/01/14 05:57:31;;;;;;;60.85;28.92;;;4.00;94.00;;;;;;5053493;28;20032;-34
2024/01/14 05:59:57;;;;;;;54.70;26.58;;;3.90;93.90;;;;;;5053601;28;20595;-37
2024/01/14 06:02:22;;;;;;;54.17;25.98;;;3.90;94.00;;;;;;5053054;28;20104;-33
2024/01/14 06:04:48;;;;;;;48.67;25.65;;;3.90;94.00;;;;;;5053178;28;20226;-34
2024/01/14 06:07:13;;;;;;;55.38;25.95;;;3.90;94.20;;;;;;5053420;28;20477;-35
2024/01/14 06:09:39;;;;;;;53.35;26.63;;;3.90;94.00;;;;;;5053118;28;20104;-36
2024/01/14 06:12:05;;;;;;;46.20;22.65;;;3.90;94.00;;;;;;5053302;28;20527;-36
2024/01/14 06:14:30;;;;;;;44.08;22.10;;;3.90;93.90;;;;;;5052727;28;20028;-37
2024/01/14 06:16:56;;;;;;;51.63;24.20;;;3.90;94.00;;;;;;5053329;28;20021;-34
2024/01/14 06:19:22;;;;;;;51.63;25.60;;;3.90;93.90;;;;;;5053305;28;20095;-35
2024/01/14 06:21:47;;;;;;;50.58;24.38;;;3.90;93.90;;;;;;5052802;28;20025;-34
2024/01/14 06:24:13;;;;;;;46.63;23.17;;;3.90;93.80;;;;;;5052736;28;20025;-36
2024/01/14 06:26:39;;;;;;;50.65;24.55;;;3.90;93.90;;;;;;5052992;28;20017;-35
2024/01/14 06:29:04;;;;;;;48.88;23.20;;;3.80;93.90;;;;;;5052663;28;20488;-39
2024/01/14 06:31:30;;;;;;;48.90;23.15;;;3.80;93.80;;;;;;5051227;28;20052;-37
2024/01/14 06:33:55;;;;;;;49.85;24.27;;;3.80;93.90;;;;;;5052825;28;20044;-35
2024/01/14 06:36:21;;;;;;;49.28;23.55;;;3.80;93.90;;;;;;5052562;28;20492;-36
2024/01/14 06:38:47;;;;;;;47.67;25.02;;;3.80;93.90;;;;;;5052934;28;20025;-36
2024/01/14 06:41:19;;;;;;;50.97;25.27;;;3.70;93.80;;;;;;5052327;28;20021;-33
2024/01/14 06:43:46;;;;;;;54.72;25.60;;;3.70;93.90;;;;;;5052728;28;20477;-35
2024/01/14 06:46:12;;;;;;;47.47;22.23;;;3.70;93.80;;;;;;5052597;28;20021;-34
2024/01/14 06:48:38;;;;;;;51.75;23.67;;;3.70;93.90;;;;;;5052383;28;20477;-30
2024/01/14 06:51:04;;;;;;;49.65;23.13;;;3.70;93.90;;;;;;5052754;28;20021;-36
2024/01/14 06:53:29;;;;;;;48.63;22.42;;;3.70;93.90;;;;;;5052584;28;20028;-32
2024/01/14 06:55:55;;;;;;;46.90;23.55;;;3.70;93.90;;;;;;5052323;28;20499;-29
2024/01/14 06:58:20;;;;;;;49.33;22.67;;;3.70;93.90;;;;;;5052185;28;20025;-30
2024/01/14 07:00:46;;;;;;;46.40;21.95;;;3.70;93.90;;;;;;5050842;28;20091;-30
2024/01/14 07:03:11;;;;;;;41.65;20.58;;;3.70;93.90;;;;;;5051956;28;20048;-29
2024/01/14 07:05:37;;;;;;;44.63;21.85;;;3.70;93.90;;;;;;5052012;28;20100;-33
2024/01/14 07:08:04;;;;;;;49.33;24.60;;;3.80;93.90;;;;;;5052015;28;20462;-30
2024/01/14 07:10:30;;;;;;;47.50;22.45;;;3.80;93.80;;;;;;5051953;28;20025;-31
2024/01/14 07:12:56;;;;;;;47.30;23.95;;;3.70;93.80;;;;;;5052164;28;20017;-31
2024/01/14 07:15:22;;;;;;;53.38;23.63;;;3.70;93.70;;;;;;5052231;28;20028;-29
2024/01/14 07:17:49;;;;;;;50.92;25.73;;;3.70;93.80;;;;;;5052190;28;20021;-30
2024/01/14 07:20:15;;;;;;;50.90;25.02;;;3.70;93.80;;;;;;5051872;28;20033;-30
2024/01/14 07:22:41;;;;;;;54.72;25.83;;;3.70;93.80;;;;;;5051972;28;20407;-34
2024/01/14 07:25:08;;;;;;;56.60;26.58;;;3.60;93.70;;;;;;5051566;28;20100;-30
2024/01/14 07:27:34;;;;;;;58.28;26.58;;;3.60;93.70;;;;;;5051906;28;20021;-32
2024/01/14 07:30:00;;;;;;;57.20;26.85;;;3.60;93.70;;;;;;5051708;28;20017;-30
2024/01/14 07:32:25;;;;;;;55.13;26.40;;;3.60;93.80;;;;;;5051851;28;20154;-35
2024/01/14 07:34:51;;;;;;;56.78;26.30;;;3.60;93.80;;;;;;5051635;28;20076;-31
2024/01/14 07:37:16;;;;;;;63.47;29.48;;;3.60;93.80;;;;;;5051629;28;20537;-28
2024/01/14 07:39:42;;;;;;;60.60;28.35;;;3.60;93.80;;;;;;5051688;28;20512;-29
2024/01/14 07:42:07;;;;;;;58.33;27.30;;;3.60;93.80;;;;;;5051834;28;20033;-34
2024/01/14 07:44:33;;;;;;;57.47;27.50;;;3.60;93.80;;;;;;5051462;28;20036;-30
2024/01/14 07:46:59;;;;;;;60.65;28.67;;;3.60;93.80;;;;;;5051551;28;20025;-30
2024/01/14 07:49:25;;;;;;;57.58;27.83;;;3.70;93.80;;;;;;5051889;28;20013;-30
2024/01/14 07:51:50;;;;;;;63.08;29.80;;;3.70;93.80;;;;;;5051606;28;20067;-35
2024/01/14 07:54:16;;;;;;;65.43;30.17;;;3.70;93.80;;;;;;5051503;28;20564;-28
2024/01/14 07:56:41;;;;;;;64.90;30.25;;;3.60;93.70;;;;;;5051709;28;20025;-30
2024/01/14 07:59:08;;;;;;;63.00;29.00;;;3.60;93.80;;;;;;5050114;28;20021;-28
2024/01/14 08:01:35;;;;;;;57.15;27.02;;;3.60;93.70;;;;;;5051170;28;20086;-29
2024/01/14 08:04:01;;;;;;;60.95;28.75;;;3.60;93.80;;;;;;5051533;28;20108;-31
2024/01/14 08:06:27;;;;;;;61.72;29.92;;;3.60;93.80;;;;;;5051612;28;20048;-31
2024/01/14 08:08:52;;;;;;;65.70;31.02;;;3.70;93.80;;;;;;5051601;28;20496;-30
2024/01/14 08:11:19;;;;;;;69.88;32.20;;;3.60;93.70;;;;;;5051329;28;20222;-33
2024/01/14 08:13:45;;;;;;;65.03;30.17;;;3.60;93.70;;;;;;5051504;28;20412;-31
2024/01/14 08:16:11;;;;;;;67.40;30.42;;;3.70;93.80;;;;;;5051441;28;20032;-29
2024/01/14 08:18:36;;;;;;;61.58;29.02;;;3.60;93.70;;;;;;5051478;28;20013;-32
2024/01/14 08:21:07;;;;;;;62.55;30.50;;;3.60;93.70;;;;;;5051080;28;20021;-32
2024/01/14 08:23:34;;;;;;;64.60;30.02;;;3.60;93.70;;;;;;5051412;28;20036;-34
2024/01/14 08:26:01;;;;;;;62.65;29.33;;;3.60;93.70;;;;;;5050966;28;20025;-34
2024/01/14 08:28:27;;;;;;;57.85;28.30;;;3.60;93.80;;;;;;5050947;28;20021;-31
2024/01/14 08:30:52;;;;;;;69.30;31.50;;;3.60;93.80;;;;;;5051201;28;20032;-42
2024/01/14 08:33:18;;;;;;;66.55;32.03;;;3.60;93.80;;;;;;5051180;28;20343;-36
2024/01/14 08:35:44;;;;;;;56.10;28.23;;;3.60;93.70;;;;;;5051124;28;20035;-37
2024/01/14 08:38:10;;;;;;;61.70;29.63;;;3.60;93.80;;;;;;5052602;28;20393;-33
2024/01/14 08:40:36;;;;;;;61.83;29.90;;;3.60;93.80;;;;;;5055125;28;20096;-35
2024/01/14 08:43:01;;;;;;;57.75;27.80;;;3.70;93.80;;;;;;5054765;28;20431;-36
2024/01/14 08:45:27;;;;;;;59.08;27.60;;;3.70;93.90;;;;;;5054735;28;20021;-32
2024/01/14 08:47:52;;;;;;;57.22;26.83;;;3.70;93.80;;;;;;5054701;28;20044;-42
2024/01/14 08:50:18;;;;;;;56.70;26.80;;;3.70;93.80;;;;;;5054880;28;20023;-34
2024/01/14 08:52:44;;;;;;;60.97;28.98;;;3.70;93.70;;;;;;5054470;28;20057;-42
2024/01/14 08:55:10;;;;;;;58.28;26.70;;;3.80;93.70;;;;;;5054804;28;20056;-32
2024/01/14 08:57:35;;;;;;;50.88;25.88;;;3.70;93.60;;;;;;5053146;28;20440;-32
2024/01/14 09:00:01;;;;;;;56.08;27.38;;;3.80;93.70;;;;;;5054393;28;20099;-29
2024/01/14 09:02:27;;;;;;;57.20;26.88;;;3.80;93.80;;;;;;5052906;28;20119;-30
2024/01/14 09:04:52;;;;;;;58.58;27.83;;;3.80;93.70;;;;;;5054541;28;20028;-37
2024/01/14 09:07:18;;;;;;;63.05;30.42;;;3.80;93.70;;;;;;5053061;28;20421;-32
2024/01/14 09:09:44;;;;;;;62.83;31.02;;;3.80;93.60;;;;;;5054545;28;20064;-32
2024/01/14 09:12:10;;;;;;;71.15;32.20;;;3.80;93.60;;;;;;5054098;28;20025;-37
2024/01/14 09:14:36;;;;;;;58.80;28.20;;;3.80;93.60;;;;;;5054215;28;20090;-29
2024/01/14 09:17:01;;;;;;;66.93;31.95;;;3.80;93.70;;;;;;5054051;28;20021;-36
2024/01/14 09:19:28;;;;;;;63.88;30.30;;;3.80;93.70;;;;;;5054586;28;20061;-28
2024/01/14 09:21:54;;;;;;;63.38;29.85;;;3.80;93.70;;;;;;5054177;28;20520;-29
2024/01/14 09:24:19;;;;;;;64.88;30.42;;;3.70;93.70;;;;;;5054012;28;20240;-31
2024/01/14 09:26:45;;;;;;;67.30;32.22;;;3.80;93.70;;;;;;5053834;28;20025;-32
2024/01/14 09:29:11;;;;;;;68.35;31.83;;;3.80;93.70;;;;;;5053877;28;20074;-29
2024/01/14 09:31:36;;;;;;;59.72;29.60;;;3.70;93.70;;;;;;5052544;28;20021;-30
2024/01/14 09:34:02;;;;;;;58.65;28.30;;;3.70;93.70;;;;;;5053668;28;20045;-29
2024/01/14 09:36:30;;;;;;;61.85;29.30;;;3.70;93.70;;;;;;5053795;28;20021;-30
2024/01/14 09:38:56;;;;;;;55.15;26.98;;;3.70;93.70;;;;;;5053759;28;20028;-29
2024/01/14 09:41:36;;;;;;;53.53;25.50;;;3.80;93.80;;;;;;5053570;28;20332;-30
2024/01/14 09:44:03;;;;;;;56.25;26.70;;;3.80;93.80;;;;;;5053591;28;20013;-32
2024/01/14 09:46:29;;;;;;;51.92;25.20;;;3.80;93.70;;;;;;5053696;28;20017;-30
2024/01/14 09:48:55;;;;;;;57.33;28.83;;;3.80;93.80;;;;;;5053079;28;20024;-35
2024/01/14 09:51:28;;;;;;;55.00;26.40;;;3.90;93.70;;;;;;5053467;28;20469;-31
2024/01/14 09:53:56;;;;;;;59.67;27.80;;;3.90;93.70;;;;;;5052149;28;20017;-30
2024/01/14 09:56:22;;;;;;;55.78;26.20;;;3.80;93.60;;;;;;5053415;28;20104;-32
2024/01/14 09:58:50;;;;;;;55.92;26.35;;;3.80;93.70;;;;;;5053295;28;20493;-30
2024/01/14 10:01:21;;;;;;;55.08;26.48;;;3.80;93.70;;;;;;5053074;28;20462;-31
2024/01/14 10:03:47;;;;;;;54.72;25.40;;;3.80;93.70;;;;;;5053129;28;20493;-32
2024/01/14 10:06:13;;;;;;;60.65;25.98;;;3.90;93.70;;;;;;5053124;28;20021;-30
2024/01/14 10:08:38;;;;;;;50.70;26.55;;;3.90;93.70;;;;;;5053264;28;20056;-29
2024/01/14 10:11:05;;;;;;;56.45;25.58;;;3.90;93.70;;;;;;5053353;28;20021;-29
2024/01/14 10:13:31;;;;;;;60.20;27.58;;;3.90;93.70;;;;;;5053351;28;20093;-29
2024/01/14 10:15:58;;;;;;;55.67;27.02;;;3.90;93.60;;;;;;5053335;28;20385;-30
2024/01/14 10:18:23;;;;;;;56.38;27.13;;;4.00;93.60;;;;;;5053343;28;20662;-30
2024/01/14 10:20:49;;;;;;;52.13;24.50;;;3.90;93.60;;;;;;5053148;28;20028;-30
2024/01/14 10:23:23;;;;;;;52.83;25.77;;;4.00;93.60;;;;;;5053117;28;20048;-30
2024/01/14 10:25:49;;;;;;;66.45;28.98;;;4.00;93.70;;;;;;5052689;28;20047;-32
2024/01/14 10:28:17;;;;;;;66.45;28.90;;;4.10;93.50;;;;;;5052711;28;20375;-29
2024/01/14 10:30:43;;;;;;;62.30;29.20;;;4.00;93.50;;;;;;5052969;28;20378;-30
2024/01/14 10:33:09;;;;;;;53.75;27.77;;;4.00;93.50;;;;;;5051083;28;20017;-31
2024/01/14 10:35:35;;;;;;;57.38;28.15;;;4.00;93.50;;;;;;5052693;28;20530;-32
2024/01/14 10:38:01;;;;;;;59.08;29.00;;;4.00;93.50;;;;;;5052507;28;20021;-29
2024/01/14 10:40:27;;;;;;;62.05;29.33;;;4.00;93.50;;;;;;5052745;28;20025;-29
2024/01/14 10:42:52;;;;;;;57.85;28.40;;;4.00;93.60;;;;;;5052431;28;20029;-29
2024/01/14 10:45:18;;;;;;;66.32;29.45;;;4.00;93.60;;;;;;5052849;28;20090;-30
2024/01/14 10:47:47;;;;;;;59.70;28.35;;;4.00;93.60;;;;;;5052456;28;20087;-30
2024/01/14 10:50:16;;;;;;;67.78;32.10;;;4.00;93.60;;;;;;5052762;28;20021;-33
2024/01/14 10:52:50;;;;;;;60.55;29.90;;;4.00;93.50;;;;;;5052524;28;20057;-33
2024/01/14 10:55:42;;;;;;;65.70;29.50;;;4.00;93.60;;;;;;5052252;28;20031;-29
2024/01/14 10:58:17;;;;;;;62.10;29.60;;;3.90;93.60;;;;;;5052164;28;20477;-32
2024/01/14 11:00:49;;;;;;;62.85;30.42;;;3.90;93.60;;;;;;5051315;28;20108;-30
2024/01/14 11:03:14;;;;;;;59.35;29.25;;;3.90;93.60;;;;;;5052156;28;20469;-34
2024/01/14 11:05:40;;;;;;;59.92;28.20;;;3.90;93.60;;;;;;5052051;28;20025;-32
2024/01/14 11:08:06;;;;;;;70.28;31.95;;;3.90;93.60;;;;;;5052075;28;20036;-29
2024/01/14 11:10:32;;;;;;;65.28;29.83;;;3.90;93.70;;;;;;5052389;28;20025;-30
2024/01/14 11:13:15;;;;;;;69.63;30.55;;;3.90;93.70;;;;;;5051878;28;20389;-31
2024/01/14 11:15:52;;;;;;;61.70;30.27;;;3.90;93.70;;;;;;5052024;28;20520;-30
2024/01/14 11:18:27;;;;;;;62.80;29.50;;;3.90;93.70;;;;;;5052312;28;20039;-31
2024/01/14 11:21:05;;;;;;;69.10;30.55;;;3.90;93.80;;;;;;5051895;28;20021;-31
2024/01/14 11:23:33;;;;;;;66.00;30.45;;;3.90;93.80;;;;;;5050596;28;20029;-33
2024/01/14 11:25:58;;;;;;;101.85;34.53;;;3.90;93.80;;;;;;5051633;28;20025;-29
2024/01/14 11:28:24;;;;;;;75.75;32.42;;;3.90;93.80;;;;;;5051994;28;20052;-33
2024/01/14 11:30:55;;;;;;;66.97;29.23;;;3.90;93.80;;;;;;5051754;28;20024;-30
2024/01/14 11:33:32;;;;;;;61.60;27.88;;;3.90;93.80;;;;;;5051521;28;20037;-33
2024/01/14 11:35:58;;;;;;;65.65;29.63;;;3.90;93.90;;;;;;5051762;28;20032;-32
2024/01/14 11:38:53;;;;;;;66.28;30.77;;;3.90;93.90;;;;;;5051663;28;20021;-31
2024/01/14 11:41:32;;;;;;;62.92;29.30;;;3.90;93.90;;;;;;5051437;28;20036;-32
2024/01/14 11:44:08;;;;;;;64.80;27.77;;;4.00;93.90;;;;;;5050239;28;20051;-29
2024/01/14 11:46:40;;;;;;;60.45;27.17;;;3.90;93.90;;;;;;5052036;28;20473;-30
2024/01/14 11:49:10;;;;;;;60.45;27.58;;;3.90;93.90;;;;;;5051510;28;20163;-30
2024/01/14 11:51:43;;;;;;;59.58;27.10;;;3.90;93.90;;;;;;5051500;28;20321;-31
2024/01/14 11:54:12;;;;;;;57.92;27.70;;;3.90;94.00;;;;;;5051631;28;20021;-32
2024/01/14 11:56:38;;;;;;;60.92;28.42;;;3.90;94.00;;;;;;5051570;28;20106;-30
2024/01/14 11:59:08;;;;;;;52.15;24.38;;;3.90;94.00;;;;;;5050434;28;20049;-33
2024/01/14 12:01:34;;;;;;;61.50;27.15;;;3.90;94.10;;;;;;5049896;28;20040;-35
2024/01/14 12:04:02;;;;;;;57.00;27.25;;;3.90;94.10;;;;;;5051462;28;20111;-33
2024/01/14 12:06:28;;;;;;;60.53;27.77;;;4.00;94.10;;;;;;5051314;28;20048;-29
2024/01/14 12:09:00;;;;;;;56.30;26.88;;;4.00;94.10;;;;;;5051638;28;20493;-29
2024/01/14 12:11:26;;;;;;;60.30;25.42;;;4.00;94.10;;;;;;5051832;28;20028;-29
2024/01/14 12:13:52;;;;;;;55.85;26.70;;;3.90;94.00;;;;;;5055352;28;20052;-28
2024/01/14 12:16:18;;;;;;;48.92;23.77;;;4.00;94.10;;;;;;5055602;28;20130;-28
2024/01/14 12:18:44;;;;;;;54.45;26.17;;;4.00;94.10;;;;;;5055405;28;20034;-31
2024/01/14 12:21:09;;;;;;;53.47;25.73;;;4.00;94.10;;;;;;5055138;28;20025;-30
2024/01/14 12:23:35;;;;;;;53.05;24.67;;;4.00;94.00;;;;;;5055203;28;20112;-30
2024/01/14 12:26:05;;;;;;;58.95;25.13;;;4.00;94.00;;;;;;5055030;28;20104;-33
2024/01/14 12:28:31;;;;;;;49.60;23.88;;;4.10;94.00;;;;;;5055098;28;20017;-29
2024/01/14 12:30:58;;;;;;;49.42;23.80;;;4.00;93.90;;;;;;5055240;28;20036;-29